sensor_id;sensor_type;location;lat;lon;timestamp;P1;durP1;ratioP1;P2;durP2;ratioP2
25615;SDS011;13482;48.234;13.006;2022-12-07T00:01:40;7.32;;;5.00;;
25615;SDS011;13482;48.234;13.006;2022-12-07T00:04:13;8.57;;;5.90;;
25615;SDS011;13482;48.234;13.006;2022-12-07T00:06:43;7.67;;;5.23;;
25615;SDS011;13482;48.234;13.006;2022-12-07T00:09:16;7.68;;;5.32;;
25615;SDS011;13482;48.234;13.006;2022-12-07T00:11:44;8.27;;;5.85;;
25615;SDS011;13482;48.234;13.006;2022-12-07T00:14:17;8.88;;;6.25;;
25615;SDS011;13482;48.234;13.006;2022-12-07T00:16:45;8.27;;;5.80;;
25615;SDS011;13482;48.234;13.006;2022-12-07T00:19:18;7.82;;;5.47;;
25615;SDS011;13482;48.234;13.006;2022-12-07T00:21:46;8.07;;;5.72;;
25615;SDS011;13482;48.234;13.006;2022-12-07T00:24:13;8.07;;;5.72;;
25615;SDS011;13482;48.234;13.006;2022-12-07T00:26:41;7.13;;;5.50;;
25615;SDS011;13482;48.234;13.006;2022-12-07T00:29:13;7.75;;;5.60;;
25615;SDS011;13482;48.234;13.006;2022-12-07T00:31:47;7.70;;;5.53;;
25615;SDS011;13482;48.234;13.006;2022-12-07T00:34:16;8.25;;;5.35;;
25615;SDS011;13482;48.234;13.006;2022-12-07T00:36:46;9.70;;;5.85;;
25615;SDS011;13482;48.234;13.006;2022-12-07T00:39:14;6.65;;;5.28;;
25615;SDS011;13482;48.234;13.006;2022-12-07T00:41:42;7.97;;;5.65;;
25615;SDS011;13482;48.234;13.006;2022-12-07T00:44:09;7.50;;;5.70;;
25615;SDS011;13482;48.234;13.006;2022-12-07T00:46:36;6.82;;;5.15;;
25615;SDS011;13482;48.234;13.006;2022-12-07T00:49:03;7.18;;;5.40;;
25615;SDS011;13482;48.234;13.006;2022-12-07T00:51:31;7.38;;;5.25;;
25615;SDS011;13482;48.234;13.006;2022-12-07T00:53:58;7.32;;;5.38;;
25615;SDS011;13482;48.234;13.006;2022-12-07T00:56:26;7.22;;;5.22;;
25615;SDS011;13482;48.234;13.006;2022-12-07T00:58:55;6.93;;;5.03;;
25615;SDS011;13482;48.234;13.006;2022-12-07T01:01:28;7.60;;;5.32;;
25615;SDS011;13482;48.234;13.006;2022-12-07T01:03:58;8.38;;;5.50;;
25615;SDS011;13482;48.234;13.006;2022-12-07T01:06:27;7.03;;;5.40;;
25615;SDS011;13482;48.234;13.006;2022-12-07T01:08:55;7.35;;;5.18;;
25615;SDS011;13482;48.234;13.006;2022-12-07T01:11:24;6.50;;;4.75;;
25615;SDS011;13482;48.234;13.006;2022-12-07T01:13:54;8.02;;;5.43;;
25615;SDS011;13482;48.234;13.006;2022-12-07T01:16:25;6.28;;;4.55;;
25615;SDS011;13482;48.234;13.006;2022-12-07T01:18:55;6.93;;;4.85;;
25615;SDS011;13482;48.234;13.006;2022-12-07T01:21:24;7.78;;;4.75;;
25615;SDS011;13482;48.234;13.006;2022-12-07T01:24:01;7.13;;;4.95;;
25615;SDS011;13482;48.234;13.006;2022-12-07T01:29:00;5.53;;;3.97;;
25615;SDS011;13482;48.234;13.006;2022-12-07T01:31:27;5.88;;;4.22;;
25615;SDS011;13482;48.234;13.006;2022-12-07T01:33:56;5.68;;;4.22;;
25615;SDS011;13482;48.234;13.006;2022-12-07T01:36:26;6.43;;;4.32;;
25615;SDS011;13482;48.234;13.006;2022-12-07T01:38:57;6.22;;;4.43;;
25615;SDS011;13482;48.234;13.006;2022-12-07T01:41:30;6.35;;;4.40;;
25615;SDS011;13482;48.234;13.006;2022-12-07T01:44:15;6.53;;;4.72;;
25615;SDS011;13482;48.234;13.006;2022-12-07T01:46:52;6.72;;;4.70;;
25615;SDS011;13482;48.234;13.006;2022-12-07T01:49:29;6.47;;;4.63;;
25615;SDS011;13482;48.234;13.006;2022-12-07T01:54:49;5.80;;;4.35;;
25615;SDS011;13482;48.234;13.006;2022-12-07T01:57:24;6.85;;;4.90;;
25615;SDS011;13482;48.234;13.006;2022-12-07T01:59:52;6.43;;;4.35;;
25615;SDS011;13482;48.234;13.006;2022-12-07T02:02:25;6.95;;;4.72;;
25615;SDS011;13482;48.234;13.006;2022-12-07T02:04:59;5.70;;;4.50;;
25615;SDS011;13482;48.234;13.006;2022-12-07T02:07:28;6.07;;;4.20;;
25615;SDS011;13482;48.234;13.006;2022-12-07T02:09:57;5.65;;;4.30;;
25615;SDS011;13482;48.234;13.006;2022-12-07T02:12:47;6.10;;;4.60;;
25615;SDS011;13482;48.234;13.006;2022-12-07T02:15:20;7.63;;;4.65;;
25615;SDS011;13482;48.234;13.006;2022-12-07T02:35:32;5.45;;;4.00;;
25615;SDS011;13482;48.234;13.006;2022-12-07T02:41:28;6.00;;;3.60;;
25615;SDS011;13482;48.234;13.006;2022-12-07T02:44:04;5.97;;;4.28;;
25615;SDS011;13482;48.234;13.006;2022-12-07T02:46:42;5.07;;;3.97;;
25615;SDS011;13482;48.234;13.006;2022-12-07T02:49:16;5.90;;;3.95;;
25615;SDS011;13482;48.234;13.006;2022-12-07T02:51:44;5.63;;;4.20;;
25615;SDS011;13482;48.234;13.006;2022-12-07T02:54:13;6.60;;;4.40;;
25615;SDS011;13482;48.234;13.006;2022-12-07T02:59:15;6.82;;;4.95;;
25615;SDS011;13482;48.234;13.006;2022-12-07T03:02:42;6.32;;;4.38;;
25615;SDS011;13482;48.234;13.006;2022-12-07T03:11:08;6.13;;;4.57;;
25615;SDS011;13482;48.234;13.006;2022-12-07T03:13:51;6.40;;;4.38;;
25615;SDS011;13482;48.234;13.006;2022-12-07T03:16:28;5.32;;;4.07;;
25615;SDS011;13482;48.234;13.006;2022-12-07T03:19:01;5.60;;;4.15;;
25615;SDS011;13482;48.234;13.006;2022-12-07T03:21:44;6.07;;;4.30;;
25615;SDS011;13482;48.234;13.006;2022-12-07T03:24:19;5.25;;;3.92;;
25615;SDS011;13482;48.234;13.006;2022-12-07T03:26:52;5.32;;;4.00;;
25615;SDS011;13482;48.234;13.006;2022-12-07T03:29:36;5.53;;;4.05;;
25615;SDS011;13482;48.234;13.006;2022-12-07T03:32:11;5.13;;;3.55;;
25615;SDS011;13482;48.234;13.006;2022-12-07T03:35:00;5.85;;;3.75;;
25615;SDS011;13482;48.234;13.006;2022-12-07T03:37:50;5.38;;;3.47;;
25615;SDS011;13482;48.234;13.006;2022-12-07T03:40:30;4.95;;;3.60;;
25615;SDS011;13482;48.234;13.006;2022-12-07T03:43:02;4.80;;;3.70;;
25615;SDS011;13482;48.234;13.006;2022-12-07T03:45:41;4.88;;;3.65;;
25615;SDS011;13482;48.234;13.006;2022-12-07T03:48:24;4.90;;;3.58;;
25615;SDS011;13482;48.234;13.006;2022-12-07T03:51:10;5.15;;;3.97;;
25615;SDS011;13482;48.234;13.006;2022-12-07T03:53:46;4.68;;;3.67;;
25615;SDS011;13482;48.234;13.006;2022-12-07T03:56:23;5.93;;;3.72;;
25615;SDS011;13482;48.234;13.006;2022-12-07T03:58:52;4.78;;;3.53;;
25615;SDS011;13482;48.234;13.006;2022-12-07T04:01:20;5.30;;;3.60;;
25615;SDS011;13482;48.234;13.006;2022-12-07T04:03:50;5.90;;;4.22;;
25615;SDS011;13482;48.234;13.006;2022-12-07T04:06:17;6.18;;;4.13;;
25615;SDS011;13482;48.234;13.006;2022-12-07T04:08:44;6.45;;;3.65;;
25615;SDS011;13482;48.234;13.006;2022-12-07T04:11:11;4.25;;;3.22;;
25615;SDS011;13482;48.234;13.006;2022-12-07T04:13:39;6.43;;;4.05;;
25615;SDS011;13482;48.234;13.006;2022-12-07T04:16:29;4.47;;;3.33;;
25615;SDS011;13482;48.234;13.006;2022-12-07T04:18:56;5.50;;;3.80;;
25615;SDS011;13482;48.234;13.006;2022-12-07T04:21:23;5.63;;;3.75;;
25615;SDS011;13482;48.234;13.006;2022-12-07T04:23:50;5.20;;;3.95;;
25615;SDS011;13482;48.234;13.006;2022-12-07T04:26:18;5.30;;;3.83;;
25615;SDS011;13482;48.234;13.006;2022-12-07T04:28:45;6.28;;;3.95;;
25615;SDS011;13482;48.234;13.006;2022-12-07T04:31:12;5.47;;;3.92;;
25615;SDS011;13482;48.234;13.006;2022-12-07T04:33:39;5.63;;;3.65;;
25615;SDS011;13482;48.234;13.006;2022-12-07T04:36:07;5.45;;;3.90;;
25615;SDS011;13482;48.234;13.006;2022-12-07T04:38:34;4.70;;;3.80;;
25615;SDS011;13482;48.234;13.006;2022-12-07T04:41:05;4.45;;;3.40;;
25615;SDS011;13482;48.234;13.006;2022-12-07T04:43:33;4.88;;;3.47;;
25615;SDS011;13482;48.234;13.006;2022-12-07T04:46:01;4.95;;;3.58;;
25615;SDS011;13482;48.234;13.006;2022-12-07T04:48:29;5.30;;;3.63;;
25615;SDS011;13482;48.234;13.006;2022-12-07T04:50:56;4.40;;;3.00;;
25615;SDS011;13482;48.234;13.006;2022-12-07T04:53:23;4.47;;;3.15;;
25615;SDS011;13482;48.234;13.006;2022-12-07T04:55:51;4.80;;;3.78;;
25615;SDS011;13482;48.234;13.006;2022-12-07T04:58:18;4.25;;;3.28;;
25615;SDS011;13482;48.234;13.006;2022-12-07T05:00:45;5.32;;;3.75;;
25615;SDS011;13482;48.234;13.006;2022-12-07T05:03:12;5.03;;;3.50;;
25615;SDS011;13482;48.234;13.006;2022-12-07T05:05:40;4.03;;;3.22;;
25615;SDS011;13482;48.234;13.006;2022-12-07T05:08:07;5.57;;;3.75;;
25615;SDS011;13482;48.234;13.006;2022-12-07T05:10:35;5.35;;;4.00;;
25615;SDS011;13482;48.234;13.006;2022-12-07T05:13:02;6.53;;;5.15;;
25615;SDS011;13482;48.234;13.006;2022-12-07T05:15:29;5.95;;;4.65;;
25615;SDS011;13482;48.234;13.006;2022-12-07T05:17:56;5.65;;;4.40;;
25615;SDS011;13482;48.234;13.006;2022-12-07T05:20:23;5.65;;;3.75;;
25615;SDS011;13482;48.234;13.006;2022-12-07T05:22:50;5.20;;;3.92;;
25615;SDS011;13482;48.234;13.006;2022-12-07T05:25:20;4.60;;;3.65;;
25615;SDS011;13482;48.234;13.006;2022-12-07T05:27:47;4.65;;;3.50;;
25615;SDS011;13482;48.234;13.006;2022-12-07T05:30:14;5.47;;;3.80;;
25615;SDS011;13482;48.234;13.006;2022-12-07T05:32:42;5.20;;;3.90;;
25615;SDS011;13482;48.234;13.006;2022-12-07T05:35:09;4.97;;;3.42;;
25615;SDS011;13482;48.234;13.006;2022-12-07T05:37:36;5.00;;;3.83;;
25615;SDS011;13482;48.234;13.006;2022-12-07T05:40:04;5.07;;;3.60;;
25615;SDS011;13482;48.234;13.006;2022-12-07T05:42:32;4.78;;;3.78;;
25615;SDS011;13482;48.234;13.006;2022-12-07T05:44:59;4.53;;;3.67;;
25615;SDS011;13482;48.234;13.006;2022-12-07T05:47:27;4.38;;;3.25;;
25615;SDS011;13482;48.234;13.006;2022-12-07T05:49:54;5.28;;;3.80;;
25615;SDS011;13482;48.234;13.006;2022-12-07T05:52:21;5.28;;;3.80;;
25615;SDS011;13482;48.234;13.006;2022-12-07T05:54:48;5.13;;;3.83;;
25615;SDS011;13482;48.234;13.006;2022-12-07T05:57:16;5.15;;;3.90;;
25615;SDS011;13482;48.234;13.006;2022-12-07T05:59:43;4.80;;;3.63;;
25615;SDS011;13482;48.234;13.006;2022-12-07T06:02:11;5.20;;;3.58;;
25615;SDS011;13482;48.234;13.006;2022-12-07T06:04:43;5.72;;;3.90;;
25615;SDS011;13482;48.234;13.006;2022-12-07T06:07:13;3.85;;;3.05;;
25615;SDS011;13482;48.234;13.006;2022-12-07T06:09:42;4.68;;;3.70;;
25615;SDS011;13482;48.234;13.006;2022-12-07T06:12:13;5.03;;;3.55;;
25615;SDS011;13482;48.234;13.006;2022-12-07T06:14:59;4.97;;;3.70;;
25615;SDS011;13482;48.234;13.006;2022-12-07T06:17:26;5.22;;;3.58;;
25615;SDS011;13482;48.234;13.006;2022-12-07T06:19:53;4.93;;;3.60;;
25615;SDS011;13482;48.234;13.006;2022-12-07T06:22:20;5.15;;;3.90;;
25615;SDS011;13482;48.234;13.006;2022-12-07T06:24:48;4.35;;;3.40;;
25615;SDS011;13482;48.234;13.006;2022-12-07T06:27:16;4.53;;;3.42;;
25615;SDS011;13482;48.234;13.006;2022-12-07T06:29:44;4.57;;;3.22;;
25615;SDS011;13482;48.234;13.006;2022-12-07T06:32:11;4.95;;;3.53;;
25615;SDS011;13482;48.234;13.006;2022-12-07T06:34:39;4.55;;;3.35;;
25615;SDS011;13482;48.234;13.006;2022-12-07T06:37:06;4.97;;;3.85;;
25615;SDS011;13482;48.234;13.006;2022-12-07T06:39:33;5.47;;;3.97;;
25615;SDS011;13482;48.234;13.006;2022-12-07T06:42:00;4.57;;;3.50;;
25615;SDS011;13482;48.234;13.006;2022-12-07T06:44:28;4.38;;;3.47;;
25615;SDS011;13482;48.234;13.006;2022-12-07T06:46:55;5.32;;;4.00;;
25615;SDS011;13482;48.234;13.006;2022-12-07T06:49:42;5.50;;;3.83;;
25615;SDS011;13482;48.234;13.006;2022-12-07T06:52:09;5.18;;;4.07;;
25615;SDS011;13482;48.234;13.006;2022-12-07T06:54:37;4.97;;;3.97;;
25615;SDS011;13482;48.234;13.006;2022-12-07T06:57:04;6.75;;;5.00;;
25615;SDS011;13482;48.234;13.006;2022-12-07T06:59:31;6.45;;;4.75;;
25615;SDS011;13482;48.234;13.006;2022-12-07T07:01:58;5.55;;;4.60;;
25615;SDS011;13482;48.234;13.006;2022-12-07T07:04:25;5.22;;;4.15;;
25615;SDS011;13482;48.234;13.006;2022-12-07T07:06:52;5.95;;;4.57;;
25615;SDS011;13482;48.234;13.006;2022-12-07T07:09:25;6.15;;;4.43;;
25615;SDS011;13482;48.234;13.006;2022-12-07T07:11:53;5.72;;;3.67;;
25615;SDS011;13482;48.234;13.006;2022-12-07T07:14:20;6.18;;;4.50;;
25615;SDS011;13482;48.234;13.006;2022-12-07T07:16:48;5.90;;;4.55;;
25615;SDS011;13482;48.234;13.006;2022-12-07T07:19:15;6.75;;;5.18;;
25615;SDS011;13482;48.234;13.006;2022-12-07T07:21:42;5.65;;;4.25;;
25615;SDS011;13482;48.234;13.006;2022-12-07T07:24:09;6.07;;;4.65;;
25615;SDS011;13482;48.234;13.006;2022-12-07T07:26:37;5.82;;;4.57;;
25615;SDS011;13482;48.234;13.006;2022-12-07T07:29:04;5.53;;;4.10;;
25615;SDS011;13482;48.234;13.006;2022-12-07T07:31:31;5.82;;;4.68;;
25615;SDS011;13482;48.234;13.006;2022-12-07T07:33:58;5.55;;;4.30;;
25615;SDS011;13482;48.234;13.006;2022-12-07T07:36:25;5.80;;;4.35;;
25615;SDS011;13482;48.234;13.006;2022-12-07T07:38:52;5.55;;;4.32;;
25615;SDS011;13482;48.234;13.006;2022-12-07T07:41:19;6.40;;;4.53;;
25615;SDS011;13482;48.234;13.006;2022-12-07T07:43:46;6.50;;;4.93;;
25615;SDS011;13482;48.234;13.006;2022-12-07T07:46:14;6.78;;;5.07;;
25615;SDS011;13482;48.234;13.006;2022-12-07T07:48:41;6.95;;;5.28;;
25615;SDS011;13482;48.234;13.006;2022-12-07T07:51:08;6.25;;;4.35;;
25615;SDS011;13482;48.234;13.006;2022-12-07T07:53:35;4.90;;;4.07;;
25615;SDS011;13482;48.234;13.006;2022-12-07T07:56:02;5.82;;;4.45;;
25615;SDS011;13482;48.234;13.006;2022-12-07T07:58:30;5.53;;;4.20;;
25615;SDS011;13482;48.234;13.006;2022-12-07T08:01:02;5.45;;;4.00;;
25615;SDS011;13482;48.234;13.006;2022-12-07T08:03:31;5.68;;;4.22;;
25615;SDS011;13482;48.234;13.006;2022-12-07T08:05:59;5.10;;;4.05;;
25615;SDS011;13482;48.234;13.006;2022-12-07T08:08:29;8.20;;;5.07;;
25615;SDS011;13482;48.234;13.006;2022-12-07T08:10:56;7.28;;;5.43;;
25615;SDS011;13482;48.234;13.006;2022-12-07T08:13:26;6.28;;;4.90;;
25615;SDS011;13482;48.234;13.006;2022-12-07T08:15:57;5.43;;;4.28;;
25615;SDS011;13482;48.234;13.006;2022-12-07T08:18:24;5.10;;;3.95;;
25615;SDS011;13482;48.234;13.006;2022-12-07T08:20:52;5.53;;;4.38;;
25615;SDS011;13482;48.234;13.006;2022-12-07T08:23:27;5.43;;;4.53;;
25615;SDS011;13482;48.234;13.006;2022-12-07T08:26:05;6.13;;;4.55;;
25615;SDS011;13482;48.234;13.006;2022-12-07T08:28:42;6.05;;;4.32;;
25615;SDS011;13482;48.234;13.006;2022-12-07T08:31:12;6.78;;;4.88;;
25615;SDS011;13482;48.234;13.006;2022-12-07T08:36:13;7.60;;;4.80;;
25615;SDS011;13482;48.234;13.006;2022-12-07T08:38:41;7.18;;;5.10;;
25615;SDS011;13482;48.234;13.006;2022-12-07T08:41:28;5.95;;;4.53;;
25615;SDS011;13482;48.234;13.006;2022-12-07T08:43:56;6.25;;;4.82;;
25615;SDS011;13482;48.234;13.006;2022-12-07T08:46:24;7.10;;;5.40;;
25615;SDS011;13482;48.234;13.006;2022-12-07T08:49:24;6.47;;;4.65;;
25615;SDS011;13482;48.234;13.006;2022-12-07T08:51:58;6.32;;;4.95;;
25615;SDS011;13482;48.234;13.006;2022-12-07T08:54:25;6.63;;;5.35;;
25615;SDS011;13482;48.234;13.006;2022-12-07T08:56:54;6.45;;;5.07;;
25615;SDS011;13482;48.234;13.006;2022-12-07T08:59:25;6.25;;;4.78;;
25615;SDS011;13482;48.234;13.006;2022-12-07T09:01:54;6.45;;;5.20;;
25615;SDS011;13482;48.234;13.006;2022-12-07T09:04:21;6.65;;;5.03;;
25615;SDS011;13482;48.234;13.006;2022-12-07T09:06:49;6.88;;;5.28;;
25615;SDS011;13482;48.234;13.006;2022-12-07T09:09:16;6.55;;;5.13;;
25615;SDS011;13482;48.234;13.006;2022-12-07T09:11:43;7.43;;;5.47;;
25615;SDS011;13482;48.234;13.006;2022-12-07T09:14:11;8.38;;;5.80;;
25615;SDS011;13482;48.234;13.006;2022-12-07T09:16:39;6.07;;;5.00;;
25615;SDS011;13482;48.234;13.006;2022-12-07T09:19:07;7.45;;;5.20;;
25615;SDS011;13482;48.234;13.006;2022-12-07T09:21:35;6.85;;;5.00;;
25615;SDS011;13482;48.234;13.006;2022-12-07T09:24:02;8.02;;;5.70;;
25615;SDS011;13482;48.234;13.006;2022-12-07T09:26:29;6.35;;;4.85;;
25615;SDS011;13482;48.234;13.006;2022-12-07T09:28:56;6.00;;;4.53;;
25615;SDS011;13482;48.234;13.006;2022-12-07T09:31:24;6.03;;;4.63;;
25615;SDS011;13482;48.234;13.006;2022-12-07T09:33:53;5.82;;;4.43;;
25615;SDS011;13482;48.234;13.006;2022-12-07T09:36:27;5.85;;;4.72;;
25615;SDS011;13482;48.234;13.006;2022-12-07T09:38:55;6.80;;;5.22;;
25615;SDS011;13482;48.234;13.006;2022-12-07T09:41:23;5.97;;;4.55;;
25615;SDS011;13482;48.234;13.006;2022-12-07T09:43:52;7.07;;;5.45;;
25615;SDS011;13482;48.234;13.006;2022-12-07T09:46:37;7.10;;;5.32;;
25615;SDS011;13482;48.234;13.006;2022-12-07T09:49:14;8.02;;;5.40;;
25615;SDS011;13482;48.234;13.006;2022-12-07T09:51:46;7.43;;;5.57;;
25615;SDS011;13482;48.234;13.006;2022-12-07T09:54:15;7.65;;;5.65;;
25615;SDS011;13482;48.234;13.006;2022-12-07T09:56:43;6.75;;;5.32;;
25615;SDS011;13482;48.234;13.006;2022-12-07T09:59:16;7.40;;;5.32;;
25615;SDS011;13482;48.234;13.006;2022-12-07T10:01:46;7.10;;;5.32;;
25615;SDS011;13482;48.234;13.006;2022-12-07T10:04:16;7.32;;;5.35;;
25615;SDS011;13482;48.234;13.006;2022-12-07T10:06:50;6.60;;;4.90;;
25615;SDS011;13482;48.234;13.006;2022-12-07T10:09:18;7.10;;;5.40;;
25615;SDS011;13482;48.234;13.006;2022-12-07T10:12:04;6.38;;;5.03;;
25615;SDS011;13482;48.234;13.006;2022-12-07T10:14:38;6.72;;;5.25;;
25615;SDS011;13482;48.234;13.006;2022-12-07T10:17:36;6.68;;;4.95;;
25615;SDS011;13482;48.234;13.006;2022-12-07T10:25:26;5.70;;;4.25;;
25615;SDS011;13482;48.234;13.006;2022-12-07T10:28:03;7.20;;;5.40;;
25615;SDS011;13482;48.234;13.006;2022-12-07T10:33:35;6.72;;;5.13;;
25615;SDS011;13482;48.234;13.006;2022-12-07T10:36:18;6.97;;;5.25;;
25615;SDS011;13482;48.234;13.006;2022-12-07T10:38:48;6.70;;;5.00;;
25615;SDS011;13482;48.234;13.006;2022-12-07T10:41:58;7.18;;;5.20;;
25615;SDS011;13482;48.234;13.006;2022-12-07T10:44:30;6.40;;;4.68;;
25615;SDS011;13482;48.234;13.006;2022-12-07T10:52:48;9.98;;;6.88;;
25615;SDS011;13482;48.234;13.006;2022-12-07T11:04:22;8.13;;;6.45;;
25615;SDS011;13482;48.234;13.006;2022-12-07T11:16:15;8.20;;;6.28;;
25615;SDS011;13482;48.234;13.006;2022-12-07T11:21:57;5.93;;;4.53;;
25615;SDS011;13482;48.234;13.006;2022-12-07T11:24:45;7.22;;;5.03;;
25615;SDS011;13482;48.234;13.006;2022-12-07T11:27:44;6.97;;;5.55;;
25615;SDS011;13482;48.234;13.006;2022-12-07T11:30:42;9.23;;;6.20;;
25615;SDS011;13482;48.234;13.006;2022-12-07T11:33:46;7.82;;;5.68;;
25615;SDS011;13482;48.234;13.006;2022-12-07T11:36:31;7.50;;;5.40;;
25615;SDS011;13482;48.234;13.006;2022-12-07T11:39:14;6.05;;;4.70;;
25615;SDS011;13482;48.234;13.006;2022-12-07T11:42:01;6.70;;;4.88;;
25615;SDS011;13482;48.234;13.006;2022-12-07T11:45:14;6.00;;;4.50;;
25615;SDS011;13482;48.234;13.006;2022-12-07T11:47:51;5.85;;;4.47;;
25615;SDS011;13482;48.234;13.006;2022-12-07T11:53:17;6.78;;;5.13;;
25615;SDS011;13482;48.234;13.006;2022-12-07T11:56:19;5.55;;;4.10;;
25615;SDS011;13482;48.234;13.006;2022-12-07T11:59:12;6.20;;;4.60;;
25615;SDS011;13482;48.234;13.006;2022-12-07T12:01:52;5.60;;;4.28;;
25615;SDS011;13482;48.234;13.006;2022-12-07T12:08:01;5.72;;;4.50;;
25615;SDS011;13482;48.234;13.006;2022-12-07T12:22:58;8.82;;;7.57;;
25615;SDS011;13482;48.234;13.006;2022-12-07T12:25:47;7.10;;;5.90;;
25615;SDS011;13482;48.234;13.006;2022-12-07T12:28:35;6.07;;;4.78;;
25615;SDS011;13482;48.234;13.006;2022-12-07T12:31:16;5.65;;;4.47;;
25615;SDS011;13482;48.234;13.006;2022-12-07T12:34:04;6.85;;;5.65;;
25615;SDS011;13482;48.234;13.006;2022-12-07T12:36:57;5.85;;;4.90;;
25615;SDS011;13482;48.234;13.006;2022-12-07T12:39:25;6.40;;;4.82;;
25615;SDS011;13482;48.234;13.006;2022-12-07T12:41:54;6.40;;;4.82;;
25615;SDS011;13482;48.234;13.006;2022-12-07T12:46:58;5.60;;;4.30;;
25615;SDS011;13482;48.234;13.006;2022-12-07T12:55:43;5.22;;;4.28;;
25615;SDS011;13482;48.234;13.006;2022-12-07T12:58:21;5.43;;;4.10;;
25615;SDS011;13482;48.234;13.006;2022-12-07T13:00:44;4.93;;;3.88;;
25615;SDS011;13482;48.234;13.006;2022-12-07T13:03:53;4.95;;;3.67;;
25615;SDS011;13482;48.234;13.006;2022-12-07T13:08:53;5.30;;;3.90;;
25615;SDS011;13482;48.234;13.006;2022-12-07T13:11:43;6.28;;;4.38;;
25615;SDS011;13482;48.234;13.006;2022-12-07T13:20:02;5.25;;;3.67;;
25615;SDS011;13482;48.234;13.006;2022-12-07T13:22:43;5.80;;;3.85;;
25615;SDS011;13482;48.234;13.006;2022-12-07T13:31:04;5.68;;;4.40;;
25615;SDS011;13482;48.234;13.006;2022-12-07T13:33:45;6.53;;;4.70;;
25615;SDS011;13482;48.234;13.006;2022-12-07T13:38:56;11.15;;;7.50;;
25615;SDS011;13482;48.234;13.006;2022-12-07T13:41:28;13.68;;;9.30;;
25615;SDS011;13482;48.234;13.006;2022-12-07T13:44:00;22.70;;;14.20;;
25615;SDS011;13482;48.234;13.006;2022-12-07T13:49:28;22.02;;;13.23;;
25615;SDS011;13482;48.234;13.006;2022-12-07T13:52:44;24.73;;;15.90;;
25615;SDS011;13482;48.234;13.006;2022-12-07T13:57:27;9.77;;;7.60;;
25615;SDS011;13482;48.234;13.006;2022-12-07T14:00:01;7.50;;;5.60;;
25615;SDS011;13482;48.234;13.006;2022-12-07T14:02:32;7.97;;;6.47;;
25615;SDS011;13482;48.234;13.006;2022-12-07T14:07:54;17.55;;;11.63;;
25615;SDS011;13482;48.234;13.006;2022-12-07T14:10:42;11.57;;;8.02;;
25615;SDS011;13482;48.234;13.006;2022-12-07T14:15:52;27.85;;;19.20;;
25615;SDS011;13482;48.234;13.006;2022-12-07T14:21:04;13.90;;;9.77;;
25615;SDS011;13482;48.234;13.006;2022-12-07T14:23:44;11.02;;;8.30;;
25615;SDS011;13482;48.234;13.006;2022-12-07T14:26:13;10.05;;;7.40;;
25615;SDS011;13482;48.234;13.006;2022-12-07T14:28:45;11.27;;;9.35;;
25615;SDS011;13482;48.234;13.006;2022-12-07T14:31:15;12.40;;;9.80;;
25615;SDS011;13482;48.234;13.006;2022-12-07T14:33:58;8.23;;;6.33;;
25615;SDS011;13482;48.234;13.006;2022-12-07T14:36:26;7.28;;;5.72;;
25615;SDS011;13482;48.234;13.006;2022-12-07T14:38:53;7.22;;;5.38;;
25615;SDS011;13482;48.234;13.006;2022-12-07T14:41:22;7.30;;;5.88;;
25615;SDS011;13482;48.234;13.006;2022-12-07T14:44:11;6.80;;;5.07;;
25615;SDS011;13482;48.234;13.006;2022-12-07T14:46:59;5.53;;;4.22;;
25615;SDS011;13482;48.234;13.006;2022-12-07T14:49:46;5.95;;;4.50;;
25615;SDS011;13482;48.234;13.006;2022-12-07T14:52:15;9.93;;;5.57;;
25615;SDS011;13482;48.234;13.006;2022-12-07T14:55:14;7.20;;;4.30;;
25615;SDS011;13482;48.234;13.006;2022-12-07T14:57:56;8.30;;;5.13;;
25615;SDS011;13482;48.234;13.006;2022-12-07T15:00:25;7.45;;;4.95;;
25615;SDS011;13482;48.234;13.006;2022-12-07T15:02:55;7.85;;;5.28;;
25615;SDS011;13482;48.234;13.006;2022-12-07T15:05:23;7.13;;;4.65;;
25615;SDS011;13482;48.234;13.006;2022-12-07T15:07:50;7.03;;;5.00;;
25615;SDS011;13482;48.234;13.006;2022-12-07T15:10:26;7.25;;;5.20;;
25615;SDS011;13482;48.234;13.006;2022-12-07T15:12:58;6.90;;;4.90;;
25615;SDS011;13482;48.234;13.006;2022-12-07T15:15:46;7.50;;;5.28;;
25615;SDS011;13482;48.234;13.006;2022-12-07T15:18:17;7.80;;;5.45;;
25615;SDS011;13482;48.234;13.006;2022-12-07T15:20:45;8.30;;;5.10;;
25615;SDS011;13482;48.234;13.006;2022-12-07T15:23:14;6.05;;;4.40;;
25615;SDS011;13482;48.234;13.006;2022-12-07T15:25:41;6.65;;;4.80;;
25615;SDS011;13482;48.234;13.006;2022-12-07T15:28:11;7.88;;;5.40;;
25615;SDS011;13482;48.234;13.006;2022-12-07T15:30:40;7.38;;;4.55;;
25615;SDS011;13482;48.234;13.006;2022-12-07T15:33:10;6.55;;;4.72;;
25615;SDS011;13482;48.234;13.006;2022-12-07T15:35:39;6.85;;;4.30;;
25615;SDS011;13482;48.234;13.006;2022-12-07T15:38:10;5.57;;;3.80;;
25615;SDS011;13482;48.234;13.006;2022-12-07T15:40:38;5.28;;;3.83;;
25615;SDS011;13482;48.234;13.006;2022-12-07T15:43:08;5.43;;;4.03;;
25615;SDS011;13482;48.234;13.006;2022-12-07T15:45:56;4.85;;;3.53;;
25615;SDS011;13482;48.234;13.006;2022-12-07T15:48:23;5.13;;;3.58;;
25615;SDS011;13482;48.234;13.006;2022-12-07T15:51:01;6.03;;;3.80;;
25615;SDS011;13482;48.234;13.006;2022-12-07T15:53:30;4.82;;;3.35;;
25615;SDS011;13482;48.234;13.006;2022-12-07T15:55:58;5.88;;;3.85;;
25615;SDS011;13482;48.234;13.006;2022-12-07T15:58:25;4.97;;;3.40;;
25615;SDS011;13482;48.234;13.006;2022-12-07T16:00:53;6.03;;;3.80;;
25615;SDS011;13482;48.234;13.006;2022-12-07T16:03:20;6.13;;;4.35;;
25615;SDS011;13482;48.234;13.006;2022-12-07T16:05:50;6.95;;;4.43;;
25615;SDS011;13482;48.234;13.006;2022-12-07T16:10:46;4.00;;;2.80;;
25615;SDS011;13482;48.234;13.006;2022-12-07T16:13:13;4.32;;;3.17;;
25615;SDS011;13482;48.234;13.006;2022-12-07T16:15:41;4.78;;;3.35;;
25615;SDS011;13482;48.234;13.006;2022-12-07T16:18:09;5.63;;;3.58;;
25615;SDS011;13482;48.234;13.006;2022-12-07T16:20:36;5.40;;;4.50;;
25615;SDS011;13482;48.234;13.006;2022-12-07T16:23:03;5.75;;;3.78;;
25615;SDS011;13482;48.234;13.006;2022-12-07T16:25:32;5.13;;;3.80;;
25615;SDS011;13482;48.234;13.006;2022-12-07T16:27:59;5.22;;;4.13;;
25615;SDS011;13482;48.234;13.006;2022-12-07T16:30:27;6.45;;;4.70;;
25615;SDS011;13482;48.234;13.006;2022-12-07T16:32:54;5.57;;;4.40;;
25615;SDS011;13482;48.234;13.006;2022-12-07T16:35:27;6.93;;;4.75;;
25615;SDS011;13482;48.234;13.006;2022-12-07T16:37:54;7.28;;;5.10;;
25615;SDS011;13482;48.234;13.006;2022-12-07T16:40:22;7.55;;;5.50;;
25615;SDS011;13482;48.234;13.006;2022-12-07T16:42:49;7.68;;;5.50;;
25615;SDS011;13482;48.234;13.006;2022-12-07T16:45:16;7.78;;;5.85;;
25615;SDS011;13482;48.234;13.006;2022-12-07T16:47:46;7.75;;;5.68;;
25615;SDS011;13482;48.234;13.006;2022-12-07T16:50:13;7.53;;;4.95;;
25615;SDS011;13482;48.234;13.006;2022-12-07T16:52:41;7.55;;;5.55;;
25615;SDS011;13482;48.234;13.006;2022-12-07T16:55:08;6.78;;;5.10;;
25615;SDS011;13482;48.234;13.006;2022-12-07T16:57:35;7.70;;;5.03;;
25615;SDS011;13482;48.234;13.006;2022-12-07T17:00:03;7.13;;;4.85;;
25615;SDS011;13482;48.234;13.006;2022-12-07T17:02:31;5.97;;;4.28;;
25615;SDS011;13482;48.234;13.006;2022-12-07T17:04:58;8.40;;;5.45;;
25615;SDS011;13482;48.234;13.006;2022-12-07T17:07:26;9.73;;;7.10;;
25615;SDS011;13482;48.234;13.006;2022-12-07T17:09:53;8.82;;;5.68;;
25615;SDS011;13482;48.234;13.006;2022-12-07T17:12:20;10.70;;;6.28;;
25615;SDS011;13482;48.234;13.006;2022-12-07T17:14:48;9.35;;;5.85;;
25615;SDS011;13482;48.234;13.006;2022-12-07T17:17:34;10.48;;;7.18;;